EDDP/LEJ METAR and TAF weather

Enter ICAO airport designator
Station Type Date Time Source
EDDP METAR 2019/12/13 22:20 UTC NOAA

EDDP 132220Z 21008KT 8000 RA FEW006 BKN011 03/02 Q0984 BECMG NSW BKN015


Station Type Date Time Source
EDDP Decoded METAR 2019/12/13 22:20 UTC NOAA

Leipzig-Schkeuditz, Germany (EDDP) 51-25N 012-14E 149M
Dec 13, 2019 - 05:20 PM EST / 2019.12.13 2220 UTC
Wind: from the SSW (210 degrees) at 9 MPH (8 KT):0
Visibility: 4 mile(s):0
Sky conditions: mostly cloudy
Weather: rain
Temperature: 37 F (3 C)
Dew Point: 35 F (2 C)
Relative Humidity: 93%
Pressure (altimeter): 29.06 in. Hg (0984 hPa)
ob: EDDP 132220Z 21008KT 8000 RA FEW006 BKN011 03/02 Q0984 BECMG NSW BKN015
cycle: 22

Station Type Date Time Source
EDDP TAF 2019/12/13 21:38 UTC NOAA

TAF
AMD EDDP 132124Z 1321/1418 21010KT 9999 BKN020 PROB30
TEMPO 1321/1404 4500 RADZ BKN009
BECMG 1410/1412 28020G35KT
TEMPO 1410/1412 RA BKN012
BECMG 1412/1415 23015G25KT

Example: see airport list